sensor_id;sensor_type;location;lat;lon;timestamp;P1;durP1;ratioP1;P2;durP2;ratioP2
55784;SDS011;41709;52.536;5.688;2023-03-01T00:01:31;18.75;;;12.93;;
55784;SDS011;41709;52.536;5.688;2023-03-01T00:03:57;18.30;;;11.38;;
55784;SDS011;41709;52.536;5.688;2023-03-01T00:06:24;17.55;;;11.95;;
55784;SDS011;41709;52.536;5.688;2023-03-01T00:08:51;19.45;;;11.63;;
55784;SDS011;41709;52.536;5.688;2023-03-01T00:11:19;14.68;;;10.23;;
55784;SDS011;41709;52.536;5.688;2023-03-01T00:13:50;17.35;;;11.77;;
55784;SDS011;41709;52.536;5.688;2023-03-01T00:16:18;15.40;;;10.60;;
55784;SDS011;41709;52.536;5.688;2023-03-01T00:18:48;16.00;;;11.35;;
55784;SDS011;41709;52.536;5.688;2023-03-01T00:21:13;17.10;;;11.48;;
55784;SDS011;41709;52.536;5.688;2023-03-01T00:23:39;15.93;;;11.30;;
55784;SDS011;41709;52.536;5.688;2023-03-01T00:26:05;17.38;;;11.68;;
55784;SDS011;41709;52.536;5.688;2023-03-01T00:28:32;15.82;;;10.13;;
55784;SDS011;41709;52.536;5.688;2023-03-01T00:31:05;17.77;;;10.85;;
55784;SDS011;41709;52.536;5.688;2023-03-01T00:33:32;15.57;;;9.90;;
55784;SDS011;41709;52.536;5.688;2023-03-01T00:35:58;17.75;;;10.68;;
55784;SDS011;41709;52.536;5.688;2023-03-01T00:38:24;15.02;;;10.63;;
55784;SDS011;41709;52.536;5.688;2023-03-01T00:40:50;12.75;;;10.55;;
55784;SDS011;41709;52.536;5.688;2023-03-01T00:43:15;14.50;;;9.95;;
55784;SDS011;41709;52.536;5.688;2023-03-01T00:45:41;14.77;;;9.95;;
55784;SDS011;41709;52.536;5.688;2023-03-01T00:48:06;13.75;;;10.30;;
55784;SDS011;41709;52.536;5.688;2023-03-01T00:50:32;14.95;;;10.05;;
55784;SDS011;41709;52.536;5.688;2023-03-01T00:52:58;16.58;;;10.88;;
55784;SDS011;41709;52.536;5.688;2023-03-01T00:55:23;15.52;;;11.10;;
55784;SDS011;41709;52.536;5.688;2023-03-01T00:57:49;13.57;;;10.05;;
55784;SDS011;41709;52.536;5.688;2023-03-01T01:00:15;12.95;;;10.25;;
55784;SDS011;41709;52.536;5.688;2023-03-01T01:02:41;15.55;;;10.43;;
55784;SDS011;41709;52.536;5.688;2023-03-01T01:05:07;11.88;;;10.20;;
55784;SDS011;41709;52.536;5.688;2023-03-01T01:07:33;16.33;;;10.98;;
55784;SDS011;41709;52.536;5.688;2023-03-01T01:09:58;14.75;;;10.55;;
55784;SDS011;41709;52.536;5.688;2023-03-01T01:12:24;15.60;;;10.32;;
55784;SDS011;41709;52.536;5.688;2023-03-01T01:14:50;14.50;;;10.98;;
55784;SDS011;41709;52.536;5.688;2023-03-01T01:17:15;14.85;;;10.95;;
55784;SDS011;41709;52.536;5.688;2023-03-01T01:19:41;13.70;;;10.13;;
55784;SDS011;41709;52.536;5.688;2023-03-01T01:22:06;15.38;;;10.63;;
55784;SDS011;41709;52.536;5.688;2023-03-01T01:24:32;15.80;;;10.48;;
55784;SDS011;41709;52.536;5.688;2023-03-01T01:26:57;15.15;;;10.50;;
55784;SDS011;41709;52.536;5.688;2023-03-01T01:29:23;14.38;;;10.60;;
55784;SDS011;41709;52.536;5.688;2023-03-01T01:31:49;15.90;;;11.02;;
55784;SDS011;41709;52.536;5.688;2023-03-01T01:34:15;15.48;;;10.75;;
55784;SDS011;41709;52.536;5.688;2023-03-01T01:36:42;14.32;;;11.02;;
55784;SDS011;41709;52.536;5.688;2023-03-01T01:39:09;18.63;;;11.00;;
55784;SDS011;41709;52.536;5.688;2023-03-01T01:44:37;17.13;;;11.23;;
55784;SDS011;41709;52.536;5.688;2023-03-01T01:46:59;18.40;;;11.75;;
55784;SDS011;41709;52.536;5.688;2023-03-01T01:49:31;14.77;;;11.68;;
55784;SDS011;41709;52.536;5.688;2023-03-01T01:52:03;19.38;;;12.73;;
55784;SDS011;41709;52.536;5.688;2023-03-01T01:57:18;16.13;;;11.27;;
55784;SDS011;41709;52.536;5.688;2023-03-01T01:59:56;16.08;;;11.75;;
55784;SDS011;41709;52.536;5.688;2023-03-01T02:02:25;17.15;;;12.25;;
55784;SDS011;41709;52.536;5.688;2023-03-01T02:04:52;17.75;;;12.93;;
55784;SDS011;41709;52.536;5.688;2023-03-01T02:07:28;21.88;;;13.52;;
55784;SDS011;41709;52.536;5.688;2023-03-01T02:09:55;18.15;;;13.05;;
55784;SDS011;41709;52.536;5.688;2023-03-01T02:12:21;18.13;;;12.85;;
55784;SDS011;41709;52.536;5.688;2023-03-01T02:14:49;17.60;;;12.37;;
55784;SDS011;41709;52.536;5.688;2023-03-01T02:17:15;20.83;;;13.52;;
55784;SDS011;41709;52.536;5.688;2023-03-01T02:22:30;17.33;;;12.93;;
55784;SDS011;41709;52.536;5.688;2023-03-01T02:30:18;19.63;;;13.75;;
55784;SDS011;41709;52.536;5.688;2023-03-01T02:32:46;21.48;;;14.40;;
55784;SDS011;41709;52.536;5.688;2023-03-01T02:35:13;22.70;;;15.50;;
55784;SDS011;41709;52.536;5.688;2023-03-01T02:37:41;23.35;;;15.98;;
55784;SDS011;41709;52.536;5.688;2023-03-01T02:40:09;24.95;;;16.65;;
55784;SDS011;41709;52.536;5.688;2023-03-01T02:42:57;25.17;;;16.98;;
55784;SDS011;41709;52.536;5.688;2023-03-01T02:45:23;21.80;;;16.23;;
55784;SDS011;41709;52.536;5.688;2023-03-01T02:47:50;28.38;;;17.73;;
55784;SDS011;41709;52.536;5.688;2023-03-01T02:50:24;27.15;;;17.65;;
55784;SDS011;41709;52.536;5.688;2023-03-01T02:52:57;26.58;;;17.13;;
55784;SDS011;41709;52.536;5.688;2023-03-01T02:55:33;24.67;;;16.65;;
55784;SDS011;41709;52.536;5.688;2023-03-01T02:57:59;23.60;;;17.42;;
55784;SDS011;41709;52.536;5.688;2023-03-01T03:00:32;24.52;;;18.45;;
55784;SDS011;41709;52.536;5.688;2023-03-01T03:03:05;29.02;;;17.35;;
55784;SDS011;41709;52.536;5.688;2023-03-01T03:05:32;25.13;;;17.60;;
55784;SDS011;41709;52.536;5.688;2023-03-01T03:07:58;25.42;;;16.67;;
55784;SDS011;41709;52.536;5.688;2023-03-01T03:10:27;26.40;;;18.17;;
55784;SDS011;41709;52.536;5.688;2023-03-01T03:13:00;23.88;;;16.23;;
55784;SDS011;41709;52.536;5.688;2023-03-01T03:15:27;28.80;;;17.73;;
55784;SDS011;41709;52.536;5.688;2023-03-01T03:17:54;26.08;;;17.65;;
55784;SDS011;41709;52.536;5.688;2023-03-01T03:20:22;24.88;;;17.27;;
55784;SDS011;41709;52.536;5.688;2023-03-01T03:22:51;22.98;;;16.30;;
55784;SDS011;41709;52.536;5.688;2023-03-01T03:25:19;22.48;;;14.15;;
55784;SDS011;41709;52.536;5.688;2023-03-01T03:27:46;24.92;;;16.55;;
55784;SDS011;41709;52.536;5.688;2023-03-01T03:30:14;26.55;;;17.35;;
55784;SDS011;41709;52.536;5.688;2023-03-01T03:32:42;26.63;;;18.10;;
55784;SDS011;41709;52.536;5.688;2023-03-01T03:35:17;24.73;;;17.65;;
55784;SDS011;41709;52.536;5.688;2023-03-01T03:37:55;22.60;;;16.42;;
55784;SDS011;41709;52.536;5.688;2023-03-01T03:40:29;22.95;;;16.67;;
55784;SDS011;41709;52.536;5.688;2023-03-01T03:42:57;24.67;;;17.10;;
55784;SDS011;41709;52.536;5.688;2023-03-01T03:45:22;25.27;;;16.63;;
55784;SDS011;41709;52.536;5.688;2023-03-01T03:47:48;26.67;;;16.33;;
55784;SDS011;41709;52.536;5.688;2023-03-01T03:50:14;22.55;;;17.13;;
55784;SDS011;41709;52.536;5.688;2023-03-01T03:52:41;26.48;;;17.63;;
55784;SDS011;41709;52.536;5.688;2023-03-01T03:55:08;25.30;;;16.70;;
55784;SDS011;41709;52.536;5.688;2023-03-01T03:57:35;24.95;;;16.90;;
55784;SDS011;41709;52.536;5.688;2023-03-01T04:00:08;27.52;;;18.10;;
55784;SDS011;41709;52.536;5.688;2023-03-01T04:02:42;26.75;;;17.77;;
55784;SDS011;41709;52.536;5.688;2023-03-01T04:05:08;26.73;;;17.85;;
55784;SDS011;41709;52.536;5.688;2023-03-01T04:07:36;24.13;;;16.33;;
55784;SDS011;41709;52.536;5.688;2023-03-01T04:10:03;24.90;;;17.10;;
55784;SDS011;41709;52.536;5.688;2023-03-01T04:12:29;26.92;;;17.80;;
55784;SDS011;41709;52.536;5.688;2023-03-01T04:14:55;24.48;;;17.48;;
55784;SDS011;41709;52.536;5.688;2023-03-01T04:17:21;28.25;;;18.55;;
55784;SDS011;41709;52.536;5.688;2023-03-01T04:19:46;30.90;;;19.58;;
55784;SDS011;41709;52.536;5.688;2023-03-01T04:22:13;28.13;;;18.60;;
55784;SDS011;41709;52.536;5.688;2023-03-01T04:24:42;32.25;;;18.92;;
55784;SDS011;41709;52.536;5.688;2023-03-01T04:27:08;32.00;;;20.45;;
55784;SDS011;41709;52.536;5.688;2023-03-01T04:29:34;31.38;;;19.77;;
55784;SDS011;41709;52.536;5.688;2023-03-01T04:31:59;29.40;;;20.27;;
55784;SDS011;41709;52.536;5.688;2023-03-01T04:34:25;34.05;;;19.13;;
55784;SDS011;41709;52.536;5.688;2023-03-01T04:36:51;36.90;;;19.75;;
55784;SDS011;41709;52.536;5.688;2023-03-01T04:39:17;45.80;;;20.25;;
55784;SDS011;41709;52.536;5.688;2023-03-01T04:41:43;35.22;;;21.10;;
55784;SDS011;41709;52.536;5.688;2023-03-01T04:44:09;36.60;;;21.65;;
55784;SDS011;41709;52.536;5.688;2023-03-01T04:46:35;66.03;;;19.33;;
55784;SDS011;41709;52.536;5.688;2023-03-01T04:49:01;108.82;;;20.70;;
55784;SDS011;41709;52.536;5.688;2023-03-01T04:51:28;121.47;;;20.55;;
55784;SDS011;41709;52.536;5.688;2023-03-01T04:53:54;143.43;;;20.83;;
55784;SDS011;41709;52.536;5.688;2023-03-01T04:56:19;74.93;;;20.95;;
55784;SDS011;41709;52.536;5.688;2023-03-01T04:58:47;89.93;;;21.58;;
55784;SDS011;41709;52.536;5.688;2023-03-01T05:01:14;66.97;;;20.45;;
55784;SDS011;41709;52.536;5.688;2023-03-01T05:03:46;69.15;;;20.33;;
55784;SDS011;41709;52.536;5.688;2023-03-01T05:06:13;80.45;;;21.65;;
55784;SDS011;41709;52.536;5.688;2023-03-01T05:08:39;69.30;;;21.27;;
55784;SDS011;41709;52.536;5.688;2023-03-01T05:11:06;54.70;;;19.00;;
55784;SDS011;41709;52.536;5.688;2023-03-01T05:13:33;57.13;;;20.63;;
55784;SDS011;41709;52.536;5.688;2023-03-01T05:16:00;67.40;;;20.88;;
55784;SDS011;41709;52.536;5.688;2023-03-01T05:18:28;78.95;;;19.75;;
55784;SDS011;41709;52.536;5.688;2023-03-01T05:20:56;69.93;;;20.25;;
55784;SDS011;41709;52.536;5.688;2023-03-01T05:23:28;61.33;;;20.05;;
55784;SDS011;41709;52.536;5.688;2023-03-01T05:25:57;83.72;;;18.90;;
55784;SDS011;41709;52.536;5.688;2023-03-01T05:28:27;61.80;;;17.75;;
55784;SDS011;41709;52.536;5.688;2023-03-01T05:30:53;62.95;;;17.77;;
55784;SDS011;41709;52.536;5.688;2023-03-01T05:33:20;72.18;;;18.42;;
55784;SDS011;41709;52.536;5.688;2023-03-01T05:35:47;68.00;;;18.10;;
55784;SDS011;41709;52.536;5.688;2023-03-01T05:38:14;39.45;;;16.95;;
55784;SDS011;41709;52.536;5.688;2023-03-01T05:40:44;56.85;;;17.52;;
55784;SDS011;41709;52.536;5.688;2023-03-01T05:43:11;59.60;;;17.58;;
55784;SDS011;41709;52.536;5.688;2023-03-01T05:45:38;64.53;;;17.48;;
55784;SDS011;41709;52.536;5.688;2023-03-01T05:48:05;49.60;;;15.68;;
55784;SDS011;41709;52.536;5.688;2023-03-01T05:50:32;40.65;;;16.70;;
55784;SDS011;41709;52.536;5.688;2023-03-01T05:53:07;56.13;;;16.75;;
55784;SDS011;41709;52.536;5.688;2023-03-01T05:55:35;46.03;;;16.50;;
55784;SDS011;41709;52.536;5.688;2023-03-01T05:58:03;48.50;;;16.95;;
55784;SDS011;41709;52.536;5.688;2023-03-01T06:00:31;34.35;;;16.00;;
55784;SDS011;41709;52.536;5.688;2023-03-01T06:02:57;35.35;;;14.45;;
55784;SDS011;41709;52.536;5.688;2023-03-01T06:05:24;38.45;;;15.13;;
55784;SDS011;41709;52.536;5.688;2023-03-01T06:07:50;39.05;;;14.13;;
55784;SDS011;41709;52.536;5.688;2023-03-01T06:10:16;44.20;;;15.07;;
55784;SDS011;41709;52.536;5.688;2023-03-01T06:12:43;40.55;;;14.48;;
55784;SDS011;41709;52.536;5.688;2023-03-01T06:15:10;27.98;;;15.35;;
55784;SDS011;41709;52.536;5.688;2023-03-01T06:17:38;25.08;;;15.15;;
55784;SDS011;41709;52.536;5.688;2023-03-01T06:20:07;32.20;;;14.73;;
55784;SDS011;41709;52.536;5.688;2023-03-01T06:22:44;43.53;;;15.27;;
55784;SDS011;41709;52.536;5.688;2023-03-01T06:25:12;37.20;;;14.88;;
55784;SDS011;41709;52.536;5.688;2023-03-01T06:27:39;55.72;;;14.68;;
55784;SDS011;41709;52.536;5.688;2023-03-01T06:30:06;36.80;;;15.02;;
55784;SDS011;41709;52.536;5.688;2023-03-01T06:32:37;43.83;;;15.88;;
55784;SDS011;41709;52.536;5.688;2023-03-01T06:35:06;30.48;;;15.45;;
55784;SDS011;41709;52.536;5.688;2023-03-01T06:37:33;41.20;;;14.73;;
55784;SDS011;41709;52.536;5.688;2023-03-01T06:40:00;33.90;;;14.32;;
55784;SDS011;41709;52.536;5.688;2023-03-01T06:42:29;32.88;;;13.82;;
55784;SDS011;41709;52.536;5.688;2023-03-01T06:44:55;37.63;;;15.43;;
55784;SDS011;41709;52.536;5.688;2023-03-01T06:47:20;29.80;;;14.57;;
55784;SDS011;41709;52.536;5.688;2023-03-01T06:49:46;35.72;;;12.68;;
55784;SDS011;41709;52.536;5.688;2023-03-01T06:52:11;34.28;;;13.68;;
55784;SDS011;41709;52.536;5.688;2023-03-01T06:54:37;28.77;;;11.98;;
55784;SDS011;41709;52.536;5.688;2023-03-01T06:57:02;37.08;;;13.30;;
55784;SDS011;41709;52.536;5.688;2023-03-01T06:59:28;27.42;;;12.80;;
55784;SDS011;41709;52.536;5.688;2023-03-01T07:01:54;23.83;;;13.43;;
55784;SDS011;41709;52.536;5.688;2023-03-01T07:04:19;31.23;;;12.40;;
55784;SDS011;41709;52.536;5.688;2023-03-01T07:06:45;20.02;;;12.38;;
55784;SDS011;41709;52.536;5.688;2023-03-01T07:09:10;31.88;;;12.35;;
55784;SDS011;41709;52.536;5.688;2023-03-01T07:11:36;27.70;;;13.05;;
55784;SDS011;41709;52.536;5.688;2023-03-01T07:14:01;33.80;;;13.05;;
55784;SDS011;41709;52.536;5.688;2023-03-01T07:16:28;38.58;;;12.63;;
55784;SDS011;41709;52.536;5.688;2023-03-01T07:18:53;20.90;;;12.50;;
55784;SDS011;41709;52.536;5.688;2023-03-01T07:21:19;17.65;;;12.43;;
55784;SDS011;41709;52.536;5.688;2023-03-01T07:23:46;30.48;;;11.80;;
55784;SDS011;41709;52.536;5.688;2023-03-01T07:26:13;17.50;;;12.07;;
55784;SDS011;41709;52.536;5.688;2023-03-01T07:28:38;13.15;;;11.75;;
55784;SDS011;41709;52.536;5.688;2023-03-01T07:31:05;14.35;;;11.52;;
55784;SDS011;41709;52.536;5.688;2023-03-01T07:33:31;15.75;;;11.77;;
55784;SDS011;41709;52.536;5.688;2023-03-01T07:35:58;13.52;;;12.02;;
55784;SDS011;41709;52.536;5.688;2023-03-01T07:38:25;13.35;;;11.32;;
55784;SDS011;41709;52.536;5.688;2023-03-01T07:40:51;12.05;;;10.75;;
55784;SDS011;41709;52.536;5.688;2023-03-01T07:43:17;15.48;;;10.63;;
55784;SDS011;41709;52.536;5.688;2023-03-01T07:45:42;11.35;;;10.15;;
55784;SDS011;41709;52.536;5.688;2023-03-01T07:48:08;14.00;;;10.88;;
55784;SDS011;41709;52.536;5.688;2023-03-01T07:50:33;12.10;;;10.05;;
55784;SDS011;41709;52.536;5.688;2023-03-01T07:52:59;18.88;;;10.55;;
55784;SDS011;41709;52.536;5.688;2023-03-01T07:55:24;12.60;;;10.57;;
55784;SDS011;41709;52.536;5.688;2023-03-01T07:57:50;13.60;;;11.43;;
55784;SDS011;41709;52.536;5.688;2023-03-01T08:00:15;14.15;;;11.18;;
55784;SDS011;41709;52.536;5.688;2023-03-01T08:02:41;14.50;;;12.07;;
55784;SDS011;41709;52.536;5.688;2023-03-01T08:05:07;17.30;;;11.43;;
55784;SDS011;41709;52.536;5.688;2023-03-01T08:07:34;12.80;;;10.73;;
55784;SDS011;41709;52.536;5.688;2023-03-01T08:09:59;14.30;;;11.18;;
55784;SDS011;41709;52.536;5.688;2023-03-01T08:12:25;14.63;;;11.32;;
55784;SDS011;41709;52.536;5.688;2023-03-01T08:14:52;13.52;;;10.93;;
55784;SDS011;41709;52.536;5.688;2023-03-01T08:17:18;12.98;;;11.00;;
55784;SDS011;41709;52.536;5.688;2023-03-01T08:19:44;16.80;;;12.45;;
55784;SDS011;41709;52.536;5.688;2023-03-01T08:22:09;15.68;;;12.93;;
55784;SDS011;41709;52.536;5.688;2023-03-01T08:24:35;16.73;;;12.77;;
55784;SDS011;41709;52.536;5.688;2023-03-01T08:27:01;21.10;;;15.30;;
55784;SDS011;41709;52.536;5.688;2023-03-01T08:29:27;19.88;;;14.13;;
55784;SDS011;41709;52.536;5.688;2023-03-01T08:31:55;21.73;;;15.60;;
55784;SDS011;41709;52.536;5.688;2023-03-01T08:34:21;22.38;;;14.25;;
55784;SDS011;41709;52.536;5.688;2023-03-01T08:36:46;19.88;;;14.77;;
55784;SDS011;41709;52.536;5.688;2023-03-01T08:39:13;21.23;;;15.05;;
55784;SDS011;41709;52.536;5.688;2023-03-01T08:41:40;22.35;;;15.07;;
55784;SDS011;41709;52.536;5.688;2023-03-01T08:44:06;22.33;;;15.75;;
55784;SDS011;41709;52.536;5.688;2023-03-01T08:46:42;23.17;;;15.60;;
55784;SDS011;41709;52.536;5.688;2023-03-01T08:49:12;23.85;;;15.88;;
55784;SDS011;41709;52.536;5.688;2023-03-01T08:51:40;20.77;;;15.57;;
55784;SDS011;41709;52.536;5.688;2023-03-01T08:54:07;22.23;;;16.00;;
55784;SDS011;41709;52.536;5.688;2023-03-01T08:56:39;26.15;;;16.75;;
55784;SDS011;41709;52.536;5.688;2023-03-01T08:59:05;26.98;;;17.67;;
55784;SDS011;41709;52.536;5.688;2023-03-01T09:01:31;27.30;;;18.10;;
55784;SDS011;41709;52.536;5.688;2023-03-01T09:03:57;28.63;;;19.42;;
55784;SDS011;41709;52.536;5.688;2023-03-01T09:06:23;32.78;;;20.50;;
55784;SDS011;41709;52.536;5.688;2023-03-01T09:08:49;31.27;;;19.60;;
55784;SDS011;41709;52.536;5.688;2023-03-01T09:11:17;32.72;;;20.63;;
55784;SDS011;41709;52.536;5.688;2023-03-01T09:13:44;34.80;;;20.80;;
55784;SDS011;41709;52.536;5.688;2023-03-01T09:16:11;35.40;;;22.00;;
55784;SDS011;41709;52.536;5.688;2023-03-01T09:18:38;33.40;;;21.48;;
55784;SDS011;41709;52.536;5.688;2023-03-01T09:21:11;35.22;;;22.08;;
55784;SDS011;41709;52.536;5.688;2023-03-01T09:23:39;39.40;;;22.13;;
55784;SDS011;41709;52.536;5.688;2023-03-01T09:26:06;37.40;;;22.52;;
55784;SDS011;41709;52.536;5.688;2023-03-01T09:28:37;43.00;;;24.92;;
55784;SDS011;41709;52.536;5.688;2023-03-01T09:31:03;41.78;;;24.15;;
55784;SDS011;41709;52.536;5.688;2023-03-01T09:33:30;41.83;;;23.55;;
55784;SDS011;41709;52.536;5.688;2023-03-01T09:35:57;36.35;;;22.73;;
55784;SDS011;41709;52.536;5.688;2023-03-01T09:38:24;37.75;;;22.08;;
55784;SDS011;41709;52.536;5.688;2023-03-01T09:40:49;35.85;;;21.63;;
55784;SDS011;41709;52.536;5.688;2023-03-01T09:43:18;39.17;;;23.65;;
55784;SDS011;41709;52.536;5.688;2023-03-01T09:45:46;35.78;;;21.92;;
55784;SDS011;41709;52.536;5.688;2023-03-01T09:48:22;35.25;;;20.40;;
55784;SDS011;41709;52.536;5.688;2023-03-01T09:50:51;32.78;;;20.40;;
55784;SDS011;41709;52.536;5.688;2023-03-01T09:53:21;30.58;;;18.30;;
55784;SDS011;41709;52.536;5.688;2023-03-01T09:55:54;32.33;;;15.80;;
55784;SDS011;41709;52.536;5.688;2023-03-01T09:58:47;25.80;;;13.85;;
55784;SDS011;41709;52.536;5.688;2023-03-01T10:01:34;27.83;;;14.95;;
55784;SDS011;41709;52.536;5.688;2023-03-01T10:07:27;23.05;;;14.50;;
55784;SDS011;41709;52.536;5.688;2023-03-01T10:09:53;19.73;;;12.20;;
55784;SDS011;41709;52.536;5.688;2023-03-01T10:12:26;18.27;;;12.13;;
55784;SDS011;41709;52.536;5.688;2023-03-01T10:22:46;16.50;;;9.73;;
55784;SDS011;41709;52.536;5.688;2023-03-01T10:25:21;21.95;;;10.40;;
55784;SDS011;41709;52.536;5.688;2023-03-01T10:27:59;18.70;;;10.90;;
55784;SDS011;41709;52.536;5.688;2023-03-01T10:30:38;15.13;;;9.63;;
55784;SDS011;41709;52.536;5.688;2023-03-01T10:35:45;19.10;;;10.30;;
55784;SDS011;41709;52.536;5.688;2023-03-01T10:38:12;18.58;;;11.27;;
55784;SDS011;41709;52.536;5.688;2023-03-01T10:40:50;19.33;;;12.27;;
55784;SDS011;41709;52.536;5.688;2023-03-01T10:43:18;18.70;;;11.57;;
55784;SDS011;41709;52.536;5.688;2023-03-01T10:45:44;15.23;;;10.15;;
55784;SDS011;41709;52.536;5.688;2023-03-01T10:48:11;12.93;;;8.02;;
55784;SDS011;41709;52.536;5.688;2023-03-01T10:50:41;11.63;;;7.28;;
55784;SDS011;41709;52.536;5.688;2023-03-01T10:53:18;13.35;;;8.73;;
55784;SDS011;41709;52.536;5.688;2023-03-01T10:55:45;15.32;;;8.20;;
55784;SDS011;41709;52.536;5.688;2023-03-01T11:00:53;15.18;;;8.65;;
55784;SDS011;41709;52.536;5.688;2023-03-01T11:03:24;11.35;;;7.55;;
55784;SDS011;41709;52.536;5.688;2023-03-01T11:08:35;14.07;;;8.20;;
55784;SDS011;41709;52.536;5.688;2023-03-01T11:16:48;9.77;;;6.20;;
55784;SDS011;41709;52.536;5.688;2023-03-01T11:19:26;7.63;;;4.85;;
55784;SDS011;41709;52.536;5.688;2023-03-01T11:24:33;7.57;;;4.57;;
55784;SDS011;41709;52.536;5.688;2023-03-01T11:27:04;5.85;;;4.43;;
55784;SDS011;41709;52.536;5.688;2023-03-01T11:29:37;7.13;;;4.70;;
55784;SDS011;41709;52.536;5.688;2023-03-01T11:32:07;7.35;;;4.25;;
55784;SDS011;41709;52.536;5.688;2023-03-01T11:40:13;7.28;;;4.50;;
55784;SDS011;41709;52.536;5.688;2023-03-01T11:42:54;8.73;;;4.72;;
55784;SDS011;41709;52.536;5.688;2023-03-01T11:51:48;9.57;;;4.82;;
55784;SDS011;41709;52.536;5.688;2023-03-01T11:57:04;8.15;;;5.18;;
55784;SDS011;41709;52.536;5.688;2023-03-01T11:59:51;6.85;;;4.70;;
55784;SDS011;41709;52.536;5.688;2023-03-01T12:05:12;7.18;;;4.85;;
55784;SDS011;41709;52.536;5.688;2023-03-01T12:08:20;9.63;;;5.28;;
55784;SDS011;41709;52.536;5.688;2023-03-01T12:10:54;7.63;;;4.90;;
55784;SDS011;41709;52.536;5.688;2023-03-01T12:16:11;8.10;;;4.80;;
55784;SDS011;41709;52.536;5.688;2023-03-01T12:27:22;7.90;;;4.88;;
55784;SDS011;41709;52.536;5.688;2023-03-01T12:32:52;8.63;;;5.05;;
55784;SDS011;41709;52.536;5.688;2023-03-01T12:48:27;8.60;;;5.35;;
55784;SDS011;41709;52.536;5.688;2023-03-01T12:51:20;8.73;;;5.22;;
55784;SDS011;41709;52.536;5.688;2023-03-01T12:53:50;8.73;;;5.00;;
55784;SDS011;41709;52.536;5.688;2023-03-01T12:56:19;8.57;;;5.10;;
55784;SDS011;41709;52.536;5.688;2023-03-01T13:01:36;8.40;;;5.03;;
55784;SDS011;41709;52.536;5.688;2023-03-01T13:17:48;8.32;;;5.53;;
55784;SDS011;41709;52.536;5.688;2023-03-01T13:20:52;7.35;;;5.13;;
55784;SDS011;41709;52.536;5.688;2023-03-01T13:23:34;8.85;;;5.72;;
55784;SDS011;41709;52.536;5.688;2023-03-01T13:36:10;10.68;;;6.38;;
55784;SDS011;41709;52.536;5.688;2023-03-01T13:38:58;12.45;;;5.80;;
55784;SDS011;41709;52.536;5.688;2023-03-01T13:49:48;7.50;;;5.28;;
55784;SDS011;41709;52.536;5.688;2023-03-01T13:55:03;9.48;;;5.80;;
55784;SDS011;41709;52.536;5.688;2023-03-01T13:57:35;9.07;;;6.15;;
55784;SDS011;41709;52.536;5.688;2023-03-01T14:00:04;11.60;;;6.03;;
55784;SDS011;41709;52.536;5.688;2023-03-01T14:02:30;6.80;;;4.72;;
55784;SDS011;41709;52.536;5.688;2023-03-01T14:04:57;7.65;;;4.63;;
55784;SDS011;41709;52.536;5.688;2023-03-01T14:07:24;7.38;;;4.80;;
55784;SDS011;41709;52.536;5.688;2023-03-01T14:09:55;6.25;;;4.55;;
55784;SDS011;41709;52.536;5.688;2023-03-01T14:15:20;7.18;;;4.18;;
55784;SDS011;41709;52.536;5.688;2023-03-01T14:18:12;8.27;;;4.65;;
55784;SDS011;41709;52.536;5.688;2023-03-01T14:20:52;8.65;;;4.60;;
55784;SDS011;41709;52.536;5.688;2023-03-01T14:23:18;6.70;;;4.40;;
55784;SDS011;41709;52.536;5.688;2023-03-01T14:25:47;9.65;;;4.80;;
55784;SDS011;41709;52.536;5.688;2023-03-01T14:28:19;6.10;;;4.10;;
55784;SDS011;41709;52.536;5.688;2023-03-01T14:30:52;5.30;;;3.70;;
55784;SDS011;41709;52.536;5.688;2023-03-01T14:35:56;6.05;;;3.45;;
55784;SDS011;41709;52.536;5.688;2023-03-01T14:41:25;4.53;;;3.40;;
55784;SDS011;41709;52.536;5.688;2023-03-01T14:43:55;7.00;;;4.50;;
55784;SDS011;41709;52.536;5.688;2023-03-01T14:49:20;5.45;;;3.67;;
55784;SDS011;41709;52.536;5.688;2023-03-01T14:51:53;8.73;;;4.28;;
55784;SDS011;41709;52.536;5.688;2023-03-01T14:54:21;5.85;;;4.32;;
55784;SDS011;41709;52.536;5.688;2023-03-01T14:56:51;6.68;;;4.10;;
55784;SDS011;41709;52.536;5.688;2023-03-01T14:59:23;4.93;;;3.33;;
55784;SDS011;41709;52.536;5.688;2023-03-01T15:01:50;5.60;;;3.97;;
55784;SDS011;41709;52.536;5.688;2023-03-01T15:04:18;7.17;;;4.33;;
55784;SDS011;41709;52.536;5.688;2023-03-01T15:06:44;5.43;;;3.70;;
55784;SDS011;41709;52.536;5.688;2023-03-01T15:09:14;6.25;;;4.00;;
55784;SDS011;41709;52.536;5.688;2023-03-01T15:11:41;5.55;;;3.60;;
55784;SDS011;41709;52.536;5.688;2023-03-01T15:16:53;5.28;;;4.00;;
55784;SDS011;41709;52.536;5.688;2023-03-01T15:19:19;6.03;;;4.53;;
55784;SDS011;41709;52.536;5.688;2023-03-01T15:21:46;6.85;;;4.40;;
55784;SDS011;41709;52.536;5.688;2023-03-01T15:29:19;7.30;;;4.55;;
55784;SDS011;41709;52.536;5.688;2023-03-01T15:31:56;5.93;;;4.05;;
55784;SDS011;41709;52.536;5.688;2023-03-01T15:34:23;5.32;;;3.65;;
55784;SDS011;41709;52.536;5.688;2023-03-01T15:36:51;5.50;;;3.90;;
55784;SDS011;41709;52.536;5.688;2023-03-01T15:39:25;5.93;;;3.60;;
55784;SDS011;41709;52.536;5.688;2023-03-01T15:41:55;6.85;;;4.07;;
55784;SDS011;41709;52.536;5.688;2023-03-01T15:44:26;6.07;;;4.45;;
55784;SDS011;41709;52.536;5.688;2023-03-01T15:46:53;8.63;;;4.50;;
55784;SDS011;41709;52.536;5.688;2023-03-01T15:49:24;6.28;;;4.30;;
55784;SDS011;41709;52.536;5.688;2023-03-01T15:52:04;6.97;;;3.88;;
55784;SDS011;41709;52.536;5.688;2023-03-01T15:54:34;7.15;;;4.38;;
55784;SDS011;41709;52.536;5.688;2023-03-01T15:57:00;6.97;;;4.40;;
55784;SDS011;41709;52.536;5.688;2023-03-01T15:59:25;7.45;;;5.07;;
55784;SDS011;41709;52.536;5.688;2023-03-01T16:01:51;7.55;;;4.95;;
55784;SDS011;41709;52.536;5.688;2023-03-01T16:04:18;6.82;;;4.70;;
55784;SDS011;41709;52.536;5.688;2023-03-01T16:06:48;6.97;;;4.60;;
55784;SDS011;41709;52.536;5.688;2023-03-01T16:09:21;8.48;;;4.85;;
55784;SDS011;41709;52.536;5.688;2023-03-01T16:11:52;7.72;;;5.55;;
55784;SDS011;41709;52.536;5.688;2023-03-01T16:14:18;10.50;;;6.05;;
55784;SDS011;41709;52.536;5.688;2023-03-01T16:16:44;9.73;;;5.68;;
55784;SDS011;41709;52.536;5.688;2023-03-01T16:19:10;9.20;;;5.50;;
55784;SDS011;41709;52.536;5.688;2023-03-01T16:21:36;10.07;;;5.50;;
55784;SDS011;41709;52.536;5.688;2023-03-01T16:24:02;8.57;;;5.80;;
55784;SDS011;41709;52.536;5.688;2023-03-01T16:26:28;7.80;;;5.20;;
55784;SDS011;41709;52.536;5.688;2023-03-01T16:28:55;8.45;;;5.95;;
55784;SDS011;41709;52.536;5.688;2023-03-01T16:31:21;9.93;;;6.72;;
55784;SDS011;41709;52.536;5.688;2023-03-01T16:33:47;10.73;;;5.70;;
55784;SDS011;41709;52.536;5.688;2023-03-01T16:36:18;10.13;;;6.85;;
55784;SDS011;41709;52.536;5.688;2023-03-01T16:38:44;10.35;;;6.07;;
55784;SDS011;41709;52.536;5.688;2023-03-01T16:41:13;10.95;;;6.22;;
55784;SDS011;41709;52.536;5.688;2023-03-01T16:43:41;11.13;;;6.57;;
55784;SDS011;41709;52.536;5.688;2023-03-01T16:46:14;10.88;;;6.13;;
55784;SDS011;41709;52.536;5.688;2023-03-01T16:48:42;11.25;;;6.55;;
55784;SDS011;41709;52.536;5.688;2023-03-01T16:51:07;8.52;;;5.68;;
55784;SDS011;41709;52.536;5.688;2023-03-01T16:53:34;9.35;;;6.03;;
55784;SDS011;41709;52.536;5.688;2023-03-01T16:56:04;9.15;;;6.00;;
55784;SDS011;41709;52.536;5.688;2023-03-01T16:58:32;9.63;;;6.88;;
55784;SDS011;41709;52.536;5.688;2023-03-01T17:01:03;10.32;;;6.88;;